createdAt,value
2022-08-02T00:03:39.417Z,100.00
2022-08-02T00:08:43.514Z,100.00
2022-08-02T00:13:47.411Z,100.00
2022-08-02T00:18:51.182Z,100.00
2022-08-02T00:24:04.986Z,100.00
2022-08-02T00:29:18.166Z,100.00
2022-08-02T00:34:28.495Z,100.00
2022-08-02T00:39:37.463Z,100.00
2022-08-02T00:44:43.257Z,100.00
2022-08-02T00:49:46.632Z,100.00
2022-08-02T00:54:50.622Z,100.00
2022-08-02T00:59:54.793Z,100.00
2022-08-02T01:04:58.638Z,100.00
2022-08-02T01:10:02.253Z,100.00
2022-08-02T01:15:11.131Z,100.00
2022-08-02T01:20:52.704Z,100.00
2022-08-02T01:26:16.959Z,100.00
2022-08-02T01:31:38.813Z,100.00
2022-08-02T01:36:46.380Z,100.00
2022-08-02T01:41:51.223Z,100.00
2022-08-02T01:47:06.598Z,100.00
2022-08-02T01:52:23.635Z,100.00
2022-08-02T01:57:31.607Z,100.00
2022-08-02T02:02:38.372Z,100.00
2022-08-02T02:07:44.636Z,100.00
2022-08-02T02:12:52.094Z,100.00
2022-08-02T02:18:13.005Z,100.00
2022-08-02T02:23:19.391Z,100.00
2022-08-02T02:28:31.519Z,100.00
2022-08-02T02:33:51.511Z,100.00
2022-08-02T02:38:56.889Z,100.00
2022-08-02T02:44:03.663Z,100.00
2022-08-02T02:49:11.020Z,100.00
2022-08-02T02:54:33.024Z,100.00
2022-08-02T02:59:48.976Z,100.00
2022-08-02T03:04:57.194Z,100.00
2022-08-02T03:10:04.750Z,100.00
2022-08-02T03:15:09.140Z,100.00
2022-08-02T03:20:18.988Z,100.00
2022-08-02T03:25:22.816Z,100.00
2022-08-02T03:30:28.514Z,100.00
2022-08-02T03:35:32.380Z,100.00
2022-08-02T03:40:37.624Z,100.00
2022-08-02T03:45:44.850Z,100.00
2022-08-02T03:50:52.763Z,100.00
2022-08-02T03:55:57.636Z,100.00
2022-08-02T04:01:01.484Z,100.00
2022-08-02T04:06:05.409Z,100.00
2022-08-02T04:11:27.636Z,100.00
2022-08-02T04:16:35.640Z,100.00
2022-08-02T04:21:51.351Z,100.00
2022-08-02T04:27:01.100Z,100.00
2022-08-02T04:32:14.816Z,100.00
2022-08-02T04:37:18.505Z,100.00
2022-08-02T04:42:23.273Z,100.00
2022-08-02T04:48:03.514Z,100.00
2022-08-02T04:52:49.871Z,100.00
2022-08-02T04:57:56.082Z,100.00
2022-08-02T05:03:00.853Z,100.00
2022-08-02T05:08:04.632Z,100.00
2022-08-02T05:13:08.264Z,100.00
2022-08-02T05:18:13.138Z,100.00
2022-08-02T05:23:16.584Z,100.00
2022-08-02T05:28:21.461Z,100.00
2022-08-02T05:33:25.290Z,100.00
2022-08-02T05:38:37.089Z,100.00
2022-08-02T05:43:40.865Z,100.00
2022-08-02T05:48:45.857Z,100.00
2022-08-02T05:53:53.263Z,100.00
2022-08-02T05:59:15.009Z,100.00
2022-08-02T06:04:34.103Z,100.00
2022-08-02T06:09:39.622Z,100.00
2022-08-02T06:14:44.297Z,100.00
2022-08-02T06:19:51.708Z,100.00
2022-08-02T06:24:58.461Z,100.00
2022-08-02T06:30:03.041Z,100.00
2022-08-02T06:35:09.882Z,100.00
2022-08-02T06:40:59.134Z,100.00
2022-08-02T06:46:57.042Z,100.00
2022-08-02T06:51:26.408Z,100.00
2022-08-02T06:56:32.400Z,100.00
2022-08-02T07:01:39.184Z,100.00
2022-08-02T07:06:42.973Z,100.00
2022-08-02T07:11:49.534Z,100.00
2022-08-02T07:16:54.296Z,100.00
2022-08-02T07:22:01.742Z,100.00
2022-08-02T07:27:12.086Z,96.01
2022-08-02T07:32:20.279Z,97.34
2022-08-02T07:37:54.230Z,96.22
2022-08-02T07:43:00.985Z,92.59
2022-08-02T07:48:06.907Z,90.92
2022-08-02T07:53:10.670Z,85.88
2022-08-02T07:58:15.449Z,88.31
2022-08-02T08:03:18.953Z,83.54
2022-08-02T08:08:22.686Z,86.60
2022-08-02T08:13:26.306Z,76.73
2022-08-02T08:18:29.659Z,74.71
2022-08-02T08:23:33.515Z,67.27
2022-08-02T08:28:38.505Z,63.80
2022-08-02T08:33:43.361Z,63.45
2022-08-02T08:38:51.156Z,69.38
2022-08-02T08:43:54.662Z,68.25
2022-08-02T08:49:37.780Z,63.28
2022-08-02T08:54:57.553Z,60.69
2022-08-02T09:00:02.961Z,55.84
2022-08-02T09:05:07.904Z,56.85
2022-08-02T09:10:40.659Z,53.57
2022-08-02T09:15:47.129Z,52.93
2022-08-02T09:20:57.102Z,50.19
2022-08-02T09:26:07.967Z,55.60
2022-08-02T09:31:15.598Z,43.03
2022-08-02T09:36:19.250Z,43.73
2022-08-02T09:41:34.193Z,57.33
2022-08-02T09:46:43.649Z,57.14
2022-08-02T09:51:47.882Z,55.29
2022-08-02T09:56:57.145Z,56.26
2022-08-02T10:02:04.221Z,57.00
2022-08-02T10:07:08.002Z,50.15
2022-08-02T10:12:13.190Z,48.96
2022-08-02T10:17:18.832Z,45.96
2022-08-02T10:22:23.580Z,48.63
2022-08-02T10:27:43.246Z,47.47
2022-08-02T10:32:58.120Z,44.21
2022-08-02T10:38:05.016Z,52.18
2022-08-02T10:43:08.667Z,53.39
2022-08-02T10:48:15.420Z,55.29
2022-08-02T10:53:25.403Z,53.04
2022-08-02T10:58:33.189Z,45.72
2022-08-02T11:03:39.572Z,41.63
2022-08-02T11:08:43.244Z,41.73
2022-08-02T11:14:10.618Z,48.97
2022-08-02T11:19:14.180Z,42.46
2022-08-02T11:24:29.129Z,37.77
2022-08-02T11:29:40.942Z,35.24
2022-08-02T11:34:50.510Z,40.22
2022-08-02T11:39:53.856Z,44.42
2022-08-02T11:44:57.230Z,50.00
2022-08-02T11:50:11.328Z,51.64
2022-08-02T11:55:15.024Z,48.71
2022-08-02T12:00:19.456Z,43.42
2022-08-02T12:05:51.279Z,39.19
2022-08-02T12:10:51.626Z,38.04
2022-08-02T12:16:16.482Z,37.33
2022-08-02T12:21:24.035Z,41.01
2022-08-02T12:26:31.300Z,42.11
2022-08-02T12:31:55.986Z,43.67
2022-08-02T12:37:08.054Z,41.68
2022-08-02T12:42:14.156Z,48.55
2022-08-02T12:47:18.424Z,47.05
2022-08-02T12:52:25.399Z,40.20
2022-08-02T12:57:29.240Z,42.98
2022-08-02T13:02:35.641Z,39.84
2022-08-02T13:07:39.252Z,40.11
2022-08-02T13:12:42.716Z,41.56
2022-08-02T13:17:46.488Z,41.53
2022-08-02T13:22:52.937Z,37.81
2022-08-02T13:27:58.572Z,39.15
2022-08-02T13:33:02.176Z,39.40
2022-08-02T13:38:07.367Z,38.73
2022-08-02T13:43:13.443Z,41.97
2022-08-02T13:48:18.339Z,42.23
2022-08-02T13:53:24.039Z,47.33
2022-08-02T13:58:27.592Z,45.52
2022-08-02T14:04:07.310Z,49.08
2022-08-02T14:08:54.560Z,49.98
2022-08-02T14:13:58.567Z,49.31
2022-08-02T14:19:02.232Z,43.79
2022-08-02T14:24:06.114Z,45.58
2022-08-02T14:29:09.447Z,46.31
2022-08-02T14:34:14.240Z,50.53
2022-08-02T14:39:17.659Z,46.44
2022-08-02T14:44:21.151Z,48.95
2022-08-02T14:49:26.791Z,51.29
2022-08-02T14:54:32.293Z,47.39
2022-08-02T14:59:36.008Z,40.60
2022-08-02T15:04:45.710Z,35.87
2022-08-02T15:09:49.296Z,37.21
2022-08-02T15:14:54.162Z,37.00
2022-08-02T15:20:01.975Z,35.02
2022-08-02T15:25:14.488Z,36.00
2022-08-02T15:30:18.586Z,37.48
2022-08-02T15:35:22.580Z,36.70
2022-08-02T15:40:26.648Z,36.48
2022-08-02T15:45:31.607Z,34.29
2022-08-02T15:50:35.238Z,30.42
2022-08-02T15:56:04.142Z,34.65
2022-08-02T16:01:05.369Z,31.29
2022-08-02T16:06:09.024Z,32.54
2022-08-02T16:11:12.678Z,32.19
2022-08-02T16:16:15.995Z,32.26
2022-08-02T16:21:20.186Z,32.11
2022-08-02T16:26:30.063Z,31.57
2022-08-02T16:31:33.964Z,34.03
2022-08-02T16:36:38.788Z,31.87
2022-08-02T16:41:51.610Z,31.64
2022-08-02T16:46:56.275Z,31.75
2022-08-02T16:52:02.423Z,30.64
2022-08-02T16:57:08.289Z,32.29
2022-08-02T17:02:18.057Z,34.04
2022-08-02T17:08:15.453Z,34.32
2022-08-02T17:12:52.101Z,33.22
2022-08-02T17:17:56.040Z,34.76
2022-08-02T17:23:00.785Z,37.11
2022-08-02T17:28:05.226Z,38.05
2022-08-02T17:33:13.173Z,37.57
2022-08-02T17:38:26.713Z,38.70
2022-08-02T17:43:31.220Z,38.09
2022-08-02T17:48:55.513Z,41.66
2022-08-02T17:53:59.239Z,40.33
2022-08-02T17:59:12.856Z,44.39
2022-08-02T18:04:26.813Z,44.81
2022-08-02T18:09:32.449Z,54.52
2022-08-02T18:14:37.981Z,57.86
2022-08-02T18:19:55.487Z,59.46
2022-08-02T18:25:00.784Z,61.94
2022-08-02T18:30:17.587Z,68.94
2022-08-02T18:35:24.961Z,72.40
2022-08-02T18:40:33.112Z,71.64
2022-08-02T18:51:00.566Z,79.03
2022-08-02T18:56:05.129Z,79.05
2022-08-02T19:01:14.994Z,80.97
2022-08-02T19:06:33.166Z,86.50
2022-08-02T19:11:36.776Z,93.71
2022-08-02T19:16:40.597Z,89.51
2022-08-02T19:22:16.258Z,88.40
2022-08-02T19:27:13.765Z,89.94
2022-08-02T19:32:42.887Z,90.25
2022-08-02T19:37:43.732Z,95.87
2022-08-02T19:44:23.240Z,100.00
2022-08-02T19:48:17.778Z,100.00
2022-08-02T19:53:29.099Z,99.62
2022-08-02T19:58:52.102Z,100.00
2022-08-02T20:03:56.215Z,100.00
2022-08-02T20:09:01.186Z,100.00
2022-08-02T20:14:05.977Z,100.00
2022-08-02T20:19:14.601Z,100.00
2022-08-02T20:24:18.783Z,100.00
2022-08-02T20:29:43.090Z,100.00
2022-08-02T20:34:49.813Z,100.00
2022-08-02T20:39:53.887Z,100.00
2022-08-02T20:44:57.037Z,100.00
2022-08-02T20:50:19.869Z,100.00
2022-08-02T20:55:36.400Z,100.00
2022-08-02T21:00:40.309Z,100.00
2022-08-02T21:05:54.518Z,100.00
2022-08-02T21:10:59.316Z,100.00
2022-08-02T21:16:07.844Z,100.00
2022-08-02T21:21:14.622Z,100.00
2022-08-02T21:26:19.702Z,100.00
2022-08-02T21:31:31.944Z,100.00
2022-08-02T21:36:36.661Z,100.00
2022-08-02T21:41:46.422Z,100.00
2022-08-02T21:46:55.249Z,100.00
2022-08-02T21:51:58.594Z,100.00
2022-08-02T21:57:02.270Z,100.00
2022-08-02T22:02:08.258Z,100.00
2022-08-02T22:07:12.365Z,100.00
2022-08-02T22:12:19.112Z,100.00
2022-08-02T22:17:51.123Z,100.00
2022-08-02T22:22:50.139Z,100.00
2022-08-02T22:28:15.816Z,100.00
2022-08-02T22:33:35.429Z,100.00
2022-08-02T22:38:44.482Z,100.00
2022-08-02T22:43:48.020Z,100.00
2022-08-02T22:48:53.508Z,100.00
2022-08-02T22:53:57.772Z,100.00
2022-08-02T22:58:58.415Z,71.55
2022-08-02T23:04:25.621Z,100.00
2022-08-02T23:09:28.658Z,100.00
2022-08-02T23:14:34.450Z,100.00
2022-08-02T23:19:53.020Z,100.00
2022-08-02T23:24:59.886Z,100.00
2022-08-02T23:30:03.413Z,100.00
2022-08-02T23:35:07.064Z,100.00
2022-08-02T23:40:10.884Z,100.00
2022-08-02T23:45:13.815Z,100.00
2022-08-02T23:50:16.952Z,100.00
2022-08-02T23:55:20.042Z,100.00
